createdAt,value
2022-07-28T00:02:17.486Z,100842.00
2022-07-28T00:04:58.234Z,100844.19
2022-07-28T00:07:27.068Z,100841.44
2022-07-28T00:09:59.857Z,100844.09
2022-07-28T00:12:30.375Z,100844.84
2022-07-28T00:15:02.457Z,100843.03
2022-07-28T00:17:56.258Z,100842.53
2022-07-28T00:20:26.401Z,100841.06
2022-07-28T00:22:54.696Z,100839.41
2022-07-28T00:25:30.267Z,100838.56
2022-07-28T00:27:57.220Z,100841.63
2022-07-28T00:30:36.306Z,100853.16
2022-07-28T00:33:07.279Z,100850.31
2022-07-28T00:35:50.559Z,100851.50
2022-07-28T00:38:25.424Z,100844.38
2022-07-28T00:41:11.364Z,100850.75
2022-07-28T00:44:10.557Z,100854.53
2022-07-28T00:46:42.363Z,100864.81
2022-07-28T00:49:28.853Z,100866.34
2022-07-28T00:52:07.171Z,100865.97
2022-07-28T00:54:34.725Z,100865.25
2022-07-28T00:57:01.549Z,100869.13
2022-07-28T00:59:28.370Z,100858.16
2022-07-28T01:01:55.828Z,100857.66
2022-07-28T01:04:23.081Z,100859.41
2022-07-28T01:07:11.162Z,100856.09
2022-07-28T01:10:05.778Z,100858.50
2022-07-28T01:12:44.635Z,100862.19
2022-07-28T01:15:22.566Z,100866.06
2022-07-28T01:17:57.903Z,100858.22
2022-07-28T01:20:47.921Z,100854.72
2022-07-28T01:23:32.878Z,100859.78
2022-07-28T01:26:06.604Z,100850.47
2022-07-28T01:28:40.265Z,100860.97
2022-07-28T01:31:08.127Z,100865.31
2022-07-28T01:33:45.877Z,100860.31
2022-07-28T01:36:16.684Z,100856.34
2022-07-28T01:38:44.382Z,100851.84
2022-07-28T01:41:15.297Z,100849.69
2022-07-28T01:43:44.784Z,100857.25
2022-07-28T01:46:12.920Z,100846.75
2022-07-28T01:48:41.306Z,100843.06
2022-07-28T01:51:09.350Z,100842.22
2022-07-28T01:53:38.310Z,100838.72
2022-07-28T01:56:05.551Z,100841.41
2022-07-28T01:58:32.823Z,100842.78
2022-07-28T02:01:02.409Z,100839.44
2022-07-28T02:03:30.768Z,100836.28
2022-07-28T02:05:58.839Z,100830.22
2022-07-28T02:08:25.966Z,100826.88
2022-07-28T02:11:13.670Z,100824.69
2022-07-28T02:13:41.930Z,100819.34
2022-07-28T02:16:10.654Z,100819.91
2022-07-28T02:18:38.423Z,100825.91
2022-07-28T02:21:07.098Z,100817.66
2022-07-28T02:23:35.278Z,100823.81
2022-07-28T02:26:04.866Z,100825.03
2022-07-28T02:28:31.688Z,100821.06
2022-07-28T02:31:05.127Z,100826.44
2022-07-28T02:33:58.486Z,100818.06
2022-07-28T02:36:29.334Z,100825.63
2022-07-28T02:39:07.996Z,100822.44
2022-07-28T02:41:39.667Z,100822.72
2022-07-28T02:44:15.124Z,100826.19
2022-07-28T02:46:45.342Z,100818.19
2022-07-28T02:49:22.015Z,100819.38
2022-07-28T02:51:50.744Z,100825.75
2022-07-28T02:54:18.488Z,100818.19
2022-07-28T02:56:53.535Z,100824.38
2022-07-28T02:59:21.572Z,100819.84
2022-07-28T03:01:49.733Z,100821.50
2022-07-28T03:04:17.730Z,100822.34
2022-07-28T03:06:44.810Z,100828.78
2022-07-28T03:09:11.796Z,100828.13
2022-07-28T03:11:52.709Z,100836.06
2022-07-28T03:14:19.498Z,100834.53
2022-07-28T03:16:46.785Z,100839.22
2022-07-28T03:19:14.537Z,100840.25
2022-07-28T03:21:42.010Z,100836.34
2022-07-28T03:24:10.140Z,100842.19
2022-07-28T03:26:41.598Z,100842.72
2022-07-28T03:29:09.264Z,100843.38
2022-07-28T03:31:37.593Z,100835.81
2022-07-28T03:34:05.264Z,100833.97
2022-07-28T03:36:37.237Z,100843.09
2022-07-28T03:39:05.104Z,100840.16
2022-07-28T03:41:34.045Z,100841.97
2022-07-28T03:44:01.625Z,100843.00
2022-07-28T03:46:29.084Z,100849.19
2022-07-28T03:48:55.864Z,100849.19
2022-07-28T03:51:25.612Z,100850.84
2022-07-28T03:53:52.342Z,100847.59
2022-07-28T03:56:19.683Z,100844.59
2022-07-28T03:58:46.569Z,100843.22
2022-07-28T04:01:13.525Z,100846.16
2022-07-28T04:03:43.972Z,100842.09
2022-07-28T04:06:15.325Z,100834.78
2022-07-28T04:08:43.321Z,100842.97
2022-07-28T04:11:10.150Z,100831.72
2022-07-28T04:13:37.988Z,100828.50
2022-07-28T04:16:06.852Z,100829.41
2022-07-28T04:18:33.591Z,100822.53
2022-07-28T04:21:00.744Z,100822.41
2022-07-28T04:23:28.549Z,100827.00
2022-07-28T04:25:56.069Z,100831.22
2022-07-28T04:28:23.487Z,100830.53
2022-07-28T04:30:50.416Z,100824.66
2022-07-28T04:33:19.666Z,100828.22
2022-07-28T04:35:47.596Z,100824.44
2022-07-28T04:38:15.341Z,100816.69
2022-07-28T04:40:42.617Z,100816.16
2022-07-28T04:43:11.190Z,100818.06
2022-07-28T04:45:52.936Z,100819.78
2022-07-28T04:48:23.225Z,100811.13
2022-07-28T04:50:51.606Z,100812.34
2022-07-28T04:53:19.285Z,100807.28
2022-07-28T04:55:46.721Z,100804.84
2022-07-28T04:58:14.854Z,100798.63
2022-07-28T05:00:43.950Z,100805.13
2022-07-28T05:03:11.655Z,100806.13
2022-07-28T05:05:38.627Z,100799.59
2022-07-28T05:08:05.740Z,100800.84
2022-07-28T05:10:32.414Z,100798.09
2022-07-28T05:12:59.118Z,100806.19
2022-07-28T05:15:25.835Z,100805.66
2022-07-28T05:17:52.712Z,100802.34
2022-07-28T05:20:20.622Z,100790.34
2022-07-28T05:22:51.894Z,100793.66
2022-07-28T05:25:23.965Z,100790.34
2022-07-28T05:27:53.009Z,100782.66
2022-07-28T05:30:20.883Z,100789.03
2022-07-28T05:32:49.631Z,100792.44
2022-07-28T05:35:19.184Z,100795.97
2022-07-28T05:37:46.163Z,100794.28
2022-07-28T05:40:14.792Z,100794.66
2022-07-28T05:42:43.036Z,100790.28
2022-07-28T05:45:15.788Z,100785.47
2022-07-28T05:47:53.000Z,100769.47
2022-07-28T05:50:22.275Z,100769.53
2022-07-28T05:52:50.169Z,100766.59
2022-07-28T05:55:18.577Z,100767.09
2022-07-28T05:57:49.138Z,100760.38
2022-07-28T06:00:18.304Z,100761.25
2022-07-28T06:02:47.844Z,100751.34
2022-07-28T06:07:11.967Z,100759.97
2022-07-28T06:09:11.630Z,100750.31
2022-07-28T06:12:38.435Z,100757.38
2022-07-28T06:19:42.217Z,100752.31
2022-07-28T06:22:51.780Z,100755.94
2022-07-28T06:29:38.237Z,100753.56
2022-07-28T06:46:31.424Z,100751.72
2022-07-28T06:48:59.589Z,100753.19
2022-07-28T06:51:27.421Z,100762.53
2022-07-28T06:53:58.300Z,100766.81
2022-07-28T06:56:29.386Z,100757.09
2022-07-28T07:02:06.635Z,100766.44
2022-07-28T07:04:46.574Z,100767.84
2022-07-28T07:11:31.955Z,100776.72
2022-07-28T07:14:07.749Z,100768.06
2022-07-28T07:16:48.116Z,100770.97
2022-07-28T07:19:16.084Z,100766.97
2022-07-28T07:21:47.587Z,100773.13
2022-07-28T07:25:05.246Z,100765.22
2022-07-28T07:27:34.423Z,100759.19
2022-07-28T07:30:01.571Z,100760.44
2022-07-28T07:32:36.983Z,100761.75
2022-07-28T07:35:26.692Z,100765.50
2022-07-28T07:38:04.443Z,100766.94
2022-07-28T07:40:45.380Z,100764.34
2022-07-28T07:43:14.725Z,100757.53
2022-07-28T07:45:51.751Z,100753.28
2022-07-28T07:48:20.752Z,100746.28
2022-07-28T07:50:53.787Z,100747.28
2022-07-28T07:53:45.040Z,100744.72
2022-07-28T07:56:49.223Z,100747.38
2022-07-28T07:59:38.056Z,100748.16
2022-07-28T08:02:18.047Z,100743.78
2022-07-28T08:04:44.880Z,100750.13
2022-07-28T08:07:39.835Z,100742.44
2022-07-28T08:10:22.839Z,100737.56
2022-07-28T08:12:52.512Z,100741.84
2022-07-28T08:18:18.821Z,100734.41
2022-07-28T08:20:45.690Z,100735.03
2022-07-28T08:23:22.883Z,100731.69
2022-07-28T08:26:09.566Z,100733.13
2022-07-28T08:28:43.109Z,100733.28
2022-07-28T08:31:17.564Z,100737.25
2022-07-28T08:33:54.062Z,100737.13
2022-07-28T08:36:28.623Z,100734.63
2022-07-28T08:39:19.556Z,100744.50
2022-07-28T08:42:37.674Z,100733.72
2022-07-28T08:45:24.955Z,100735.84
2022-07-28T08:48:08.125Z,100735.22
2022-07-28T08:50:43.684Z,100737.56
2022-07-28T08:53:12.884Z,100735.34
2022-07-28T08:55:42.241Z,100734.56
2022-07-28T08:58:16.513Z,100725.47
2022-07-28T09:00:49.429Z,100728.66
2022-07-28T09:03:29.098Z,100725.94
2022-07-28T09:06:07.623Z,100716.94
2022-07-28T09:08:40.570Z,100719.53
2022-07-28T09:11:39.618Z,100716.19
2022-07-28T09:17:10.404Z,100721.28
2022-07-28T09:19:50.978Z,100712.66
2022-07-28T09:22:19.920Z,100707.09
2022-07-28T09:24:46.978Z,100706.91
2022-07-28T09:27:30.539Z,100704.69
2022-07-28T09:32:50.648Z,100703.31
2022-07-28T09:35:32.998Z,100708.34
2022-07-28T09:38:05.100Z,100700.81
2022-07-28T09:40:48.553Z,100701.59
2022-07-28T09:49:44.461Z,100698.84
2022-07-28T09:52:53.376Z,100702.47
2022-07-28T09:55:22.829Z,100691.00
2022-07-28T09:58:12.319Z,100684.41
2022-07-28T10:00:48.231Z,100690.09
2022-07-28T10:04:02.817Z,100690.09
2022-07-28T10:06:40.848Z,100687.41
2022-07-28T10:09:09.849Z,100689.78
2022-07-28T10:12:00.183Z,100676.72
2022-07-28T10:14:41.507Z,100675.91
2022-07-28T10:17:27.734Z,100683.97
2022-07-28T10:20:09.299Z,100692.03
2022-07-28T10:23:12.538Z,100690.22
2022-07-28T10:29:02.114Z,100676.44
2022-07-28T10:32:02.343Z,100671.66
2022-07-28T10:35:17.983Z,100663.06
2022-07-28T10:38:09.712Z,100655.69
2022-07-28T10:40:42.830Z,100656.53
2022-07-28T10:43:11.929Z,100659.84
2022-07-28T10:48:53.795Z,100649.19
2022-07-28T10:51:54.129Z,100645.03
2022-07-28T10:55:03.137Z,100635.59
2022-07-28T10:58:35.518Z,100646.66
2022-07-28T11:01:47.208Z,100640.69
2022-07-28T11:04:53.491Z,100633.19
2022-07-28T11:07:50.501Z,100643.09
2022-07-28T11:10:38.709Z,100634.97
2022-07-28T11:13:41.021Z,100631.03
2022-07-28T11:16:17.296Z,100637.06
2022-07-28T11:19:39.990Z,100631.31
2022-07-28T11:22:24.724Z,100631.59
2022-07-28T11:25:00.629Z,100620.31
2022-07-28T11:30:51.203Z,100616.38
2022-07-28T11:33:57.821Z,100615.31
2022-07-28T11:37:09.816Z,100613.50
2022-07-28T11:39:54.362Z,100613.72
2022-07-28T11:42:55.908Z,100615.25
2022-07-28T11:45:38.420Z,100608.28
2022-07-28T11:48:47.588Z,100602.31
2022-07-28T11:51:53.900Z,100607.19
2022-07-28T11:54:31.673Z,100613.69
2022-07-28T11:57:13.794Z,100603.31
2022-07-28T12:00:02.351Z,100601.78
2022-07-28T12:02:48.440Z,100596.31
2022-07-28T12:06:04.203Z,100594.69
2022-07-28T12:09:03.401Z,100590.16
2022-07-28T12:11:38.109Z,100583.75
2022-07-28T12:14:45.156Z,100580.09
2022-07-28T12:17:19.197Z,100581.66
2022-07-28T12:20:37.072Z,100589.06
2022-07-28T12:23:16.551Z,100585.75
2022-07-28T12:25:45.991Z,100585.31
2022-07-28T12:28:15.399Z,100580.19
2022-07-28T12:30:53.194Z,100576.84
2022-07-28T12:33:29.796Z,100574.53
2022-07-28T12:35:59.866Z,100564.19
2022-07-28T12:38:46.907Z,100559.34
2022-07-28T12:41:45.134Z,100560.22
2022-07-28T12:44:15.577Z,100559.16
2022-07-28T12:46:59.869Z,100561.06
2022-07-28T12:49:33.082Z,100564.59
2022-07-28T12:52:23.288Z,100567.59
2022-07-28T12:55:21.491Z,100561.09
2022-07-28T13:01:15.241Z,100556.78
2022-07-28T13:03:54.041Z,100563.09
2022-07-28T13:06:21.551Z,100559.81
2022-07-28T13:08:49.614Z,100550.25
2022-07-28T13:14:05.305Z,100563.88
2022-07-28T13:16:34.585Z,100551.63
2022-07-28T13:19:05.316Z,100551.06
2022-07-28T13:21:56.668Z,100556.81
2022-07-28T13:24:27.979Z,100540.69
2022-07-28T13:26:54.810Z,100550.81
2022-07-28T13:29:22.638Z,100547.81
2022-07-28T13:31:51.795Z,100542.91
2022-07-28T13:37:28.120Z,100533.09
2022-07-28T13:40:31.689Z,100529.00
2022-07-28T13:43:01.454Z,100526.28
2022-07-28T13:45:43.058Z,100523.00
2022-07-28T13:48:59.831Z,100514.53
2022-07-28T13:51:45.779Z,100504.75
2022-07-28T13:54:19.877Z,100507.19
2022-07-28T13:57:19.398Z,100503.63
2022-07-28T14:00:14.311Z,100506.63
2022-07-28T14:05:48.017Z,100502.50
2022-07-28T14:08:25.174Z,100498.47
2022-07-28T14:11:13.510Z,100499.56
2022-07-28T14:13:49.882Z,100494.84
2022-07-28T14:16:28.394Z,100499.22
2022-07-28T14:19:01.894Z,100498.41
2022-07-28T14:21:40.319Z,100495.13
2022-07-28T14:24:10.499Z,100491.84
2022-07-28T14:26:45.398Z,100486.41
2022-07-28T14:29:12.509Z,100489.66
2022-07-28T14:31:41.713Z,100491.53
2022-07-28T14:34:24.660Z,100492.88
2022-07-28T14:37:11.605Z,100496.13
2022-07-28T14:39:52.391Z,100488.25
2022-07-28T14:42:22.900Z,100483.84
2022-07-28T14:44:55.033Z,100489.47
2022-07-28T14:47:44.425Z,100492.59
2022-07-28T14:50:23.251Z,100482.78
2022-07-28T14:53:05.069Z,100481.13
2022-07-28T14:55:35.270Z,100489.50
2022-07-28T14:58:07.716Z,100490.66
2022-07-28T15:00:39.664Z,100485.34
2022-07-28T15:09:32.467Z,100469.06
2022-07-28T15:12:08.347Z,100466.91
2022-07-28T15:17:51.356Z,100470.66
2022-07-28T15:20:20.857Z,100465.16
2022-07-28T15:22:55.907Z,100465.91
2022-07-28T15:25:44.368Z,100456.03
2022-07-28T15:28:21.214Z,100461.56
2022-07-28T15:31:17.642Z,100472.81
2022-07-28T15:40:26.455Z,100464.06
2022-07-28T15:42:55.898Z,100461.97
2022-07-28T15:45:25.658Z,100453.81
2022-07-28T15:48:20.116Z,100463.94
2022-07-28T15:50:53.154Z,100461.47
2022-07-28T15:53:50.969Z,100441.59
2022-07-28T15:56:28.927Z,100448.69
2022-07-28T15:59:10.401Z,100450.16
2022-07-28T16:01:58.846Z,100450.44
2022-07-28T16:04:29.035Z,100454.38
2022-07-28T16:07:32.639Z,100452.44
2022-07-28T16:10:05.191Z,100448.63
2022-07-28T16:12:36.967Z,100448.34
2022-07-28T16:15:22.755Z,100451.91
2022-07-28T16:18:02.902Z,100445.66
2022-07-28T16:20:33.236Z,100444.03
2022-07-28T16:23:06.393Z,100449.75
2022-07-28T16:25:35.150Z,100443.16
2022-07-28T16:28:04.614Z,100446.47
2022-07-28T16:30:37.485Z,100435.22
2022-07-28T16:33:11.408Z,100436.63
2022-07-28T16:38:56.350Z,100433.84
2022-07-28T16:41:47.529Z,100437.88
2022-07-28T16:44:30.479Z,100438.81
2022-07-28T16:47:09.765Z,100430.91
2022-07-28T16:49:46.645Z,100430.50
2022-07-28T16:52:14.910Z,100432.47
2022-07-28T16:54:56.331Z,100436.38
2022-07-28T16:57:31.356Z,100427.94
2022-07-28T17:00:05.519Z,100422.00
2022-07-28T17:02:38.731Z,100428.31
2022-07-28T17:05:37.953Z,100426.75
2022-07-28T17:08:09.559Z,100425.47
2022-07-28T17:10:39.427Z,100425.03
2022-07-28T17:13:22.494Z,100426.41
2022-07-28T17:18:41.209Z,100418.25
2022-07-28T17:24:04.505Z,100435.97
2022-07-28T17:29:37.128Z,100429.13
2022-07-28T17:35:06.059Z,100440.00
2022-07-28T17:38:06.916Z,100440.06
2022-07-28T17:40:52.136Z,100445.75
2022-07-28T17:43:36.351Z,100439.00
2022-07-28T17:46:14.608Z,100445.84
2022-07-28T17:48:41.574Z,100445.00
2022-07-28T17:51:11.061Z,100434.91
2022-07-28T17:53:45.573Z,100443.38
2022-07-28T17:56:12.532Z,100445.03
2022-07-28T17:58:42.774Z,100444.78
2022-07-28T18:01:15.259Z,100444.19
2022-07-28T18:03:57.718Z,100442.84
2022-07-28T18:06:33.517Z,100451.59
2022-07-28T18:09:07.396Z,100446.69
2022-07-28T18:11:55.959Z,100446.38
2022-07-28T18:14:29.974Z,100448.28
2022-07-28T18:16:59.173Z,100442.84
2022-07-28T18:19:28.338Z,100435.22
2022-07-28T18:21:57.500Z,100440.06
2022-07-28T18:24:27.127Z,100437.88
2022-07-28T18:27:00.471Z,100438.13
2022-07-28T18:29:38.233Z,100436.19
2022-07-28T18:32:07.810Z,100435.56
2022-07-28T18:34:41.202Z,100432.84
2022-07-28T18:37:08.004Z,100429.28
2022-07-28T18:39:34.804Z,100437.41
2022-07-28T18:42:02.089Z,100438.69
2022-07-28T18:44:30.036Z,100425.59
2022-07-28T18:47:00.880Z,100441.84
2022-07-28T18:49:29.122Z,100433.13
2022-07-28T18:52:04.590Z,100440.81
2022-07-28T18:54:33.197Z,100437.13
2022-07-28T18:57:03.162Z,100433.03
2022-07-28T18:59:30.006Z,100435.75
2022-07-28T19:02:00.997Z,100439.63
2022-07-28T19:04:29.032Z,100428.84
2022-07-28T19:06:57.737Z,100439.41
2022-07-28T19:09:25.962Z,100444.44
2022-07-28T19:11:55.553Z,100446.03
2022-07-28T19:14:22.513Z,100442.91
2022-07-28T19:16:49.473Z,100443.22
2022-07-28T19:19:16.820Z,100445.56
2022-07-28T19:21:45.671Z,100448.91
2022-07-28T19:24:14.908Z,100458.28
2022-07-28T19:26:43.205Z,100450.16
2022-07-28T19:29:10.099Z,100462.16
2022-07-28T19:31:37.040Z,100456.63
2022-07-28T19:34:05.535Z,100457.28
2022-07-28T19:36:32.502Z,100463.50
2022-07-28T19:38:59.590Z,100458.69
2022-07-28T19:41:28.656Z,100467.34
2022-07-28T19:43:56.381Z,100469.28
2022-07-28T19:46:28.202Z,100475.97
2022-07-28T19:48:55.618Z,100478.25
2022-07-28T19:54:27.576Z,100483.56
2022-07-28T19:57:03.556Z,100493.34
2022-07-28T19:59:39.159Z,100493.69
2022-07-28T20:02:06.970Z,100502.06
2022-07-28T20:04:33.978Z,100497.88
2022-07-28T20:07:01.163Z,100501.69
2022-07-28T20:09:28.351Z,100498.72
2022-07-28T20:11:56.899Z,100502.16
2022-07-28T20:14:24.081Z,100511.59
2022-07-28T20:16:53.654Z,100512.56
2022-07-28T20:19:20.465Z,100508.22
2022-07-28T20:21:47.356Z,100521.25
2022-07-28T20:24:15.717Z,100515.44
2022-07-28T20:26:43.059Z,100519.22
2022-07-28T20:29:10.218Z,100516.59
2022-07-28T20:31:37.851Z,100519.66
2022-07-28T20:34:07.800Z,100516.94
2022-07-28T20:36:35.229Z,100511.75
2022-07-28T20:39:11.506Z,100513.03
2022-07-28T20:41:49.182Z,100519.06
2022-07-28T20:44:28.683Z,100516.19
2022-07-28T20:47:00.784Z,100518.91
2022-07-28T20:49:28.415Z,100525.88
2022-07-28T20:51:56.209Z,100515.19
2022-07-28T20:54:23.024Z,100517.88
2022-07-28T20:56:50.771Z,100517.53
2022-07-28T20:59:18.048Z,100519.88
2022-07-28T21:01:45.040Z,100519.25
2022-07-28T21:04:12.267Z,100519.13
2022-07-28T21:06:40.056Z,100519.59
2022-07-28T21:09:18.392Z,100526.28
2022-07-28T21:11:45.652Z,100526.06
2022-07-28T21:14:12.569Z,100527.94
2022-07-28T21:16:39.864Z,100529.06
2022-07-28T21:19:06.708Z,100529.06
2022-07-28T21:21:33.620Z,100531.75
2022-07-28T21:24:00.591Z,100539.00
2022-07-28T21:26:27.455Z,100543.09
2022-07-28T21:29:12.410Z,100536.84
2022-07-28T21:32:04.413Z,100535.84
2022-07-28T21:34:27.008Z,100541.28
2022-07-28T21:36:53.725Z,100537.69
2022-07-28T21:39:20.395Z,100540.50
2022-07-28T21:41:47.426Z,100539.91
2022-07-28T21:44:14.562Z,100541.88
2022-07-28T21:46:45.828Z,100538.22
2022-07-28T21:49:12.763Z,100548.16
2022-07-28T21:51:39.959Z,100548.13
2022-07-28T21:54:07.139Z,100547.91
2022-07-28T21:56:34.908Z,100552.75
2022-07-28T21:59:02.521Z,100558.22
2022-07-28T22:01:29.576Z,100560.78
2022-07-28T22:03:56.911Z,100559.97
2022-07-28T22:06:24.036Z,100563.94
2022-07-28T22:08:53.736Z,100561.31
2022-07-28T22:11:23.218Z,100566.47
2022-07-28T22:13:50.152Z,100559.19
2022-07-28T22:16:16.918Z,100556.72
2022-07-28T22:18:44.291Z,100556.59
2022-07-28T22:21:11.122Z,100565.16
2022-07-28T22:23:38.422Z,100561.53
2022-07-28T22:26:05.239Z,100570.31
2022-07-28T22:28:31.999Z,100562.69
2022-07-28T22:31:08.865Z,100567.56
2022-07-28T22:33:40.101Z,100572.34
2022-07-28T22:36:09.383Z,100569.31
2022-07-28T22:38:37.257Z,100570.03
2022-07-28T22:41:04.043Z,100573.88
2022-07-28T22:43:33.962Z,100582.78
2022-07-28T22:46:01.257Z,100573.47
2022-07-28T22:48:28.284Z,100576.03
2022-07-28T22:50:55.300Z,100583.25
2022-07-28T22:53:22.483Z,100576.16
2022-07-28T22:55:49.299Z,100575.97
2022-07-28T22:58:16.126Z,100582.41
2022-07-28T23:00:42.923Z,100574.53
2022-07-28T23:03:12.879Z,100577.47
2022-07-28T23:05:40.126Z,100579.56
2022-07-28T23:08:06.830Z,100579.72
2022-07-28T23:10:34.377Z,100581.81
2022-07-28T23:13:01.303Z,100577.91
2022-07-28T23:15:39.550Z,100572.13
2022-07-28T23:18:10.169Z,100579.31
2022-07-28T23:20:37.526Z,100569.81
2022-07-28T23:23:04.215Z,100578.06
2022-07-28T23:25:30.923Z,100566.44
2022-07-28T23:27:57.695Z,100569.31
2022-07-28T23:30:24.397Z,100569.97
2022-07-28T23:32:52.959Z,100568.53
2022-07-28T23:35:19.737Z,100560.44
2022-07-28T23:37:46.481Z,100560.88
2022-07-28T23:40:13.439Z,100559.50
2022-07-28T23:42:40.202Z,100555.28
2022-07-28T23:45:07.345Z,100564.63
2022-07-28T23:47:34.429Z,100561.34
2022-07-28T23:50:02.019Z,100557.44
2022-07-28T23:52:28.800Z,100558.75
2022-07-28T23:54:55.878Z,100549.38
2022-07-28T23:57:22.637Z,100546.31
2022-07-28T23:59:49.390Z,100546.75
